Terminal Aerodrome Forecast
Issued by NWS Duluth, MN

Home | Current Version | Previous Version | Text Only | Print | Product List | Glossary On
Versions: 1 2 3 4 5 6 7 8 9 10 11 12 13 14 15 16 17 18 19 20 21 22 23 24 25 26 27 28 29 30
000
FTUS43 KDLH 290500
TAFINL
TAF
KINL 290531Z 2906/3006 05010KT P6SM BKN014 OVC030
      TEMPO 2906/2910 5SM -DZ BR OVC009
     FM291200 08010KT P6SM SCT015 BKN030
     FM291800 10007KT P6SM BKN035=

USA.gov is the U.S. government's official web portal to all federal, state and local government web resources and services.